Panola, Texas
Current Conditions -  °F | °C
As of 11:56 PM on Friday 19 Dec 2014 (Local Time) from KSHV Reporting Station
Overcast Overcast  
Wind Chill: 43°   Ceiling: 800
Heat Index: 47°   Visibility: 9mi
Dew Point: 44°   Wind: 8mph
Humidity: 90%   Direction: 70°ENE
Pressure: 30.19"   Gusts: NA
Location:  32.36°N, 94.09°W
Report Text: KSHV 200556Z 07007KT 9SM OVC008 08/07 A3019 RMK AO2 SLP222 60001 T00830067 10089 20083 401060083 50003
Loading
Personal Weather Stations






























Interactive Weather Map New forecast layout! Learn more

10-Day Weather Forecast

Advertisements
Track Severe Weather on mobile